Atwood, Tennessee
Current Conditions -  °F | °C
As of 11:53 PM on Wednesday 28 Jan 2015 (Local Time) from KMKL Reporting Station
Clear Clear  
Wind Chill: 51°   Ceiling: Unl
Heat Index: 51°   Visibility: 10mi
Dew Point: 29°   Wind: 17mph
Humidity: 43%   Direction: 190°S
Pressure: 30.05"   Gusts: 26mph
Location:  35.97°N, 88.68°W
Report Text: KMKL 290553Z AUTO 19015G23KT 10SM CLR 11/M02 A3005 RMK AO2 SLP176 T01061017 10111 20094 401391028 57025
Loading
Personal Weather Stations






























Interactive Weather Map New forecast layout! Learn more

10-Day Weather Forecast

Advertisements
Track Severe Weather on mobile